Time;durP1;ratioP1;P1;durP2;ratioP2;P2;SDS_P1;SDS_P2;PMS_P1;PMS_P2;Temp;Humidity;BMP_temperature;BMP_pressure;BME280_temperature;BME280_humidity;BME280_pressure;Samples;Min_cycle;Max_cycle;Signal;HPM_P1;HPM_P2
2024/04/02 00:01:08;;;;;;;17.02;14.75;;;7.60;99.90;;;;;;7392436;19;20014;-66
2024/04/02 00:03:38;;;;;;;15.75;14.10;;;7.50;99.90;;;;;;7386785;19;20014;-65
2024/04/02 00:06:05;;;;;;;17.60;15.80;;;7.50;99.90;;;;;;7390486;19;20014;-65
2024/04/02 00:08:31;;;;;;;19.90;15.18;;;7.60;99.90;;;;;;7373886;19;20014;-60
2024/04/02 00:11:05;;;;;;;17.27;15.15;;;7.60;99.90;;;;;;7372098;19;20451;-59
2024/04/02 00:13:33;;;;;;;19.27;16.13;;;7.60;99.90;;;;;;7371917;19;20021;-60
2024/04/02 00:16:00;;;;;;;16.30;14.60;;;7.60;99.90;;;;;;7380390;19;20015;-60
2024/04/02 00:18:26;;;;;;;19.42;15.48;;;7.60;99.90;;;;;;7371340;19;20478;-60
2024/04/02 00:20:53;;;;;;;19.20;14.95;;;7.60;99.90;;;;;;7380887;19;20014;-60
2024/04/02 00:23:19;;;;;;;17.63;14.05;;;7.60;99.90;;;;;;7371923;19;20026;-61
2024/04/02 00:25:46;;;;;;;16.67;14.88;;;7.70;99.90;;;;;;7373538;19;20466;-61
2024/04/02 00:28:13;;;;;;;17.67;13.55;;;7.70;99.90;;;;;;7365597;19;20014;-61
2024/04/02 00:30:39;;;;;;;17.83;14.18;;;7.70;99.90;;;;;;7368387;19;20045;-61
2024/04/02 00:33:06;;;;;;;14.13;12.63;;;7.70;99.90;;;;;;7371481;19;20782;-61
2024/04/02 00:35:33;;;;;;;16.75;13.77;;;7.80;99.90;;;;;;7366573;19;20763;-61
2024/04/02 00:37:59;;;;;;;16.27;13.02;;;7.80;99.90;;;;;;7369569;19;20026;-61
2024/04/02 00:40:25;;;;;;;16.35;12.70;;;7.80;99.90;;;;;;7374039;19;20042;-66
2024/04/02 00:42:51;;;;;;;13.82;11.75;;;7.80;99.90;;;;;;7378685;19;20701;-61
2024/04/02 00:45:18;;;;;;;15.18;12.75;;;7.80;99.90;;;;;;7370208;19;20011;-61
2024/04/02 00:47:46;;;;;;;14.60;11.25;;;7.70;99.90;;;;;;7367593;19;20358;-61
2024/04/02 00:50:13;;;;;;;12.75;10.05;;;7.80;99.90;;;;;;7370428;19;20043;-60
2024/04/02 00:52:40;;;;;;;14.48;10.35;;;7.80;99.90;;;;;;7370024;19;20022;-66
2024/04/02 00:55:06;;;;;;;12.05;10.32;;;7.90;99.90;;;;;;7387314;19;20023;-65
2024/04/02 00:57:32;;;;;;;10.68;9.43;;;7.90;99.90;;;;;;7385579;19;20018;-65
2024/04/02 01:00:00;;;;;;;12.30;9.38;;;7.80;99.90;;;;;;7388524;19;20356;-66
2024/04/02 01:02:27;;;;;;;11.15;9.13;;;7.80;99.90;;;;;;7389764;19;20010;-66
2024/04/02 01:04:53;;;;;;;11.13;8.68;;;7.80;99.90;;;;;;7372720;19;20030;-62
2024/04/02 01:07:20;;;;;;;12.40;8.38;;;7.80;99.90;;;;;;7379524;19;20014;-66
2024/04/02 01:09:46;;;;;;;11.57;7.90;;;7.80;99.90;;;;;;7372585;19;20028;-60
2024/04/02 01:12:12;;;;;;;9.38;8.13;;;7.70;99.90;;;;;;7367014;19;20022;-65
2024/04/02 01:14:42;;;;;;;9.45;7.47;;;7.70;99.90;;;;;;7387467;19;20019;-65
2024/04/02 01:17:09;;;;;;;9.68;7.53;;;7.80;99.90;;;;;;7386690;19;20036;-65
2024/04/02 01:19:35;;;;;;;10.00;7.20;;;7.80;99.90;;;;;;7386454;19;20426;-65
2024/04/02 01:22:02;;;;;;;9.80;6.82;;;7.80;99.90;;;;;;7378348;19;20477;-61
2024/04/02 01:24:29;;;;;;;10.20;6.53;;;7.80;99.90;;;;;;7367316;19;20022;-60
2024/04/02 01:26:56;;;;;;;9.40;6.47;;;7.80;99.90;;;;;;7368037;19;20023;-60
2024/04/02 01:29:22;;;;;;;8.35;6.65;;;7.90;99.90;;;;;;7369011;19;20732;-60
2024/04/02 01:31:51;;;;;;;10.30;6.90;;;7.80;99.90;;;;;;7382410;19;20018;-65
2024/04/02 01:34:18;;;;;;;10.30;6.05;;;7.80;99.90;;;;;;7378459;19;20021;-60
2024/04/02 01:36:46;;;;;;;9.02;6.47;;;7.80;99.90;;;;;;7386551;19;20096;-66
2024/04/02 01:39:12;;;;;;;7.30;6.35;;;7.80;99.90;;;;;;7388043;19;20022;-66
2024/04/02 01:41:38;;;;;;;8.82;5.93;;;7.70;99.90;;;;;;7394889;19;20122;-66
2024/04/02 01:44:05;;;;;;;8.82;7.20;;;7.70;99.90;;;;;;7384544;19;20485;-61
2024/04/02 01:46:31;;;;;;;12.82;6.80;;;7.70;99.90;;;;;;7384441;19;20019;-65
2024/04/02 01:48:57;;;;;;;7.55;6.22;;;7.60;99.90;;;;;;7379039;19;20066;-65
2024/04/02 01:51:26;;;;;;;8.40;7.50;;;7.60;99.90;;;;;;7390607;19;20018;-61
2024/04/02 01:53:52;;;;;;;11.40;7.65;;;7.60;99.90;;;;;;7374681;19;20636;-61
2024/04/02 01:56:18;;;;;;;11.85;8.02;;;7.50;99.90;;;;;;7383799;19;20350;-67
2024/04/02 01:58:44;;;;;;;9.18;8.02;;;7.50;99.90;;;;;;7384611;19;20416;-65
2024/04/02 02:01:10;;;;;;;8.55;6.95;;;7.50;99.90;;;;;;7391275;19;20069;-66
2024/04/02 02:03:37;;;;;;;13.00;7.90;;;7.40;99.90;;;;;;7392628;19;20018;-66
2024/04/02 02:06:03;;;;;;;8.60;7.70;;;7.40;99.90;;;;;;7382573;19;20021;-64
2024/04/02 02:08:33;;;;;;;9.90;7.45;;;7.50;99.90;;;;;;7391645;19;20011;-66
2024/04/02 02:11:03;;;;;;;11.50;8.05;;;7.50;99.90;;;;;;7378884;19;20029;-61
2024/04/02 02:13:38;;;;;;;10.85;8.25;;;7.40;99.90;;;;;;7379760;19;20098;-61
2024/04/02 02:16:05;;;;;;;9.32;7.93;;;7.30;99.90;;;;;;7376588;19;20715;-60
2024/04/02 02:18:34;;;;;;;10.18;7.68;;;7.20;99.90;;;;;;7378383;19;20027;-60
2024/04/02 02:21:00;;;;;;;11.90;8.07;;;7.30;99.90;;;;;;7377685;19;20031;-61
2024/04/02 02:23:27;;;;;;;11.18;8.27;;;7.20;99.90;;;;;;7378135;19;20751;-61
2024/04/02 02:25:57;;;;;;;8.80;7.78;;;7.20;99.90;;;;;;7379406;19;20027;-65
2024/04/02 02:28:25;;;;;;;11.52;8.63;;;7.10;99.90;;;;;;7381974;19;20474;-65
2024/04/02 02:30:51;;;;;;;11.48;8.77;;;7.10;99.90;;;;;;7392587;19;20416;-66
2024/04/02 02:33:17;;;;;;;15.32;9.40;;;7.10;99.90;;;;;;7391789;19;20501;-60
2024/04/02 02:35:52;;;;;;;12.30;9.13;;;7.10;99.90;;;;;;7374307;19;20886;-61
2024/04/02 02:38:21;;;;;;;11.00;8.98;;;7.00;99.90;;;;;;7389620;19;20066;-65
2024/04/02 02:40:48;;;;;;;13.25;9.80;;;7.00;99.90;;;;;;7392633;19;20044;-66
2024/04/02 02:43:14;;;;;;;12.00;8.77;;;7.00;99.90;;;;;;7386544;19;20018;-61
2024/04/02 02:45:50;;;;;;;11.25;9.95;;;7.00;99.90;;;;;;7380917;19;20022;-66
2024/04/02 02:48:17;;;;;;;12.60;10.10;;;7.00;99.90;;;;;;7391662;19;20120;-66
2024/04/02 02:50:43;;;;;;;10.40;8.98;;;7.10;99.90;;;;;;7378536;19;20022;-60
2024/04/02 02:53:09;;;;;;;10.13;8.98;;;7.00;99.90;;;;;;7372745;19;20026;-60
2024/04/02 02:55:35;;;;;;;11.27;9.43;;;7.00;99.90;;;;;;7372669;19;20030;-59
2024/04/02 02:58:05;;;;;;;12.75;9.40;;;7.00;99.90;;;;;;7383430;19;20018;-65
2024/04/02 03:00:31;;;;;;;13.05;9.77;;;7.00;99.90;;;;;;7379765;19;20509;-60
2024/04/02 03:02:58;;;;;;;13.27;9.88;;;7.00;99.90;;;;;;7370760;19;20056;-60
2024/04/02 03:05:25;;;;;;;13.60;9.43;;;7.00;99.90;;;;;;7374062;19;20018;-60
2024/04/02 03:07:51;;;;;;;12.23;9.55;;;7.00;99.90;;;;;;7370887;19;20023;-61
2024/04/02 03:10:17;;;;;;;10.88;9.40;;;7.00;99.90;;;;;;7372412;19;20583;-61
2024/04/02 03:12:43;;;;;;;12.48;10.02;;;7.00;99.90;;;;;;7381981;19;20018;-66
2024/04/02 03:15:10;;;;;;;13.23;9.35;;;7.00;99.90;;;;;;7388845;19;20376;-66
2024/04/02 03:17:36;;;;;;;11.60;10.00;;;6.90;99.90;;;;;;7375231;19;20036;-67
2024/04/02 03:20:04;;;;;;;10.73;9.50;;;6.90;99.90;;;;;;7387430;19;20018;-67
2024/04/02 03:22:30;;;;;;;11.27;8.95;;;7.00;99.90;;;;;;7372230;19;20098;-60
2024/04/02 03:24:57;;;;;;;11.98;9.27;;;7.00;99.90;;;;;;7370186;19;20154;-61
2024/04/02 03:27:23;;;;;;;11.65;9.52;;;7.00;99.90;;;;;;7369250;19;20014;-61
2024/04/02 03:29:49;;;;;;;13.02;9.52;;;7.00;99.90;;;;;;7376125;19;20018;-61
2024/04/02 03:32:15;;;;;;;12.45;9.90;;;7.00;99.90;;;;;;7370860;19;20563;-60
2024/04/02 03:34:41;;;;;;;11.13;9.73;;;7.00;99.90;;;;;;7387015;19;20014;-66
2024/04/02 03:37:07;;;;;;;11.65;9.15;;;7.00;99.90;;;;;;7388947;19;20095;-66
2024/04/02 03:39:35;;;;;;;10.52;8.93;;;7.00;99.90;;;;;;7381311;19;20018;-66
2024/04/02 03:42:01;;;;;;;10.82;9.23;;;7.00;99.90;;;;;;7377446;19;20025;-61
2024/04/02 03:44:27;;;;;;;12.65;9.63;;;7.00;99.90;;;;;;7384148;19;20011;-66
2024/04/02 03:46:55;;;;;;;9.68;8.68;;;7.00;99.90;;;;;;7390642;19;20026;-67
2024/04/02 03:49:22;;;;;;;10.25;8.82;;;7.00;99.90;;;;;;7387598;19;20033;-66
2024/04/02 03:51:48;;;;;;;12.85;9.25;;;6.90;99.90;;;;;;7370529;19;20014;-60
2024/04/02 03:54:16;;;;;;;13.65;9.05;;;6.90;99.90;;;;;;7375121;19;20124;-65
2024/04/02 03:56:42;;;;;;;13.05;9.15;;;6.90;99.90;;;;;;7387017;19;20049;-60
2024/04/02 03:59:08;;;;;;;11.30;8.75;;;6.90;99.90;;;;;;7385815;19;20018;-65
2024/04/02 04:01:35;;;;;;;11.18;8.88;;;6.90;99.90;;;;;;7388676;19;20018;-66
2024/04/02 04:04:01;;;;;;;12.45;8.82;;;6.90;99.90;;;;;;7387281;19;20085;-66
2024/04/02 04:06:28;;;;;;;9.43;8.40;;;6.80;99.90;;;;;;7376128;19;20014;-61
2024/04/02 04:08:54;;;;;;;12.43;9.25;;;6.80;99.90;;;;;;7383988;19;20697;-67
2024/04/02 04:11:20;;;;;;;10.68;8.57;;;6.80;99.90;;;;;;7390720;19;20030;-67
2024/04/02 04:13:46;;;;;;;10.15;8.30;;;6.80;99.90;;;;;;7377869;19;20052;-61
2024/04/02 04:16:15;;;;;;;14.20;9.23;;;6.80;99.90;;;;;;7377699;19;20561;-65
2024/04/02 04:18:41;;;;;;;11.45;8.40;;;6.70;99.90;;;;;;7387843;19;20021;-66
2024/04/02 04:21:07;;;;;;;12.65;9.73;;;6.70;99.90;;;;;;7376070;19;20033;-61
2024/04/02 04:23:33;;;;;;;11.95;8.93;;;6.70;99.90;;;;;;7367386;19;20010;-65
2024/04/02 04:26:06;;;;;;;10.93;8.98;;;6.70;99.90;;;;;;7387033;19;20015;-66
2024/04/02 04:28:32;;;;;;;12.13;9.55;;;6.70;99.90;;;;;;7388945;19;20106;-66
2024/04/02 04:31:00;;;;;;;13.20;10.13;;;6.70;99.90;;;;;;7386833;19;20026;-65
2024/04/02 04:33:27;;;;;;;13.10;9.85;;;6.70;99.90;;;;;;7366277;19;20257;-62
2024/04/02 04:35:54;;;;;;;12.93;10.80;;;6.70;99.90;;;;;;7360572;19;20022;-64
2024/04/02 04:38:22;;;;;;;12.85;10.55;;;6.70;99.90;;;;;;7362253;19;20022;-63
2024/04/02 04:40:51;;;;;;;12.90;10.20;;;6.80;99.90;;;;;;7362353;19;20036;-61
2024/04/02 04:43:18;;;;;;;13.43;10.48;;;6.70;99.90;;;;;;7361968;19;20090;-62
2024/04/02 04:45:54;;;;;;;12.48;10.38;;;6.70;99.90;;;;;;7368171;19;20105;-62
2024/04/02 04:48:21;;;;;;;10.93;9.43;;;6.70;99.90;;;;;;7368838;19;20018;-67
2024/04/02 04:51:04;;;;;;;12.52;10.40;;;6.60;99.90;;;;;;7391789;19;20046;-68
2024/04/02 04:53:32;;;;;;;12.75;10.20;;;6.70;99.90;;;;;;7387104;19;20107;-66
2024/04/02 04:56:05;;;;;;;13.60;11.15;;;6.70;99.90;;;;;;7390881;19;20046;-66
2024/04/02 04:58:33;;;;;;;13.13;10.60;;;6.70;99.90;;;;;;7387349;19;20037;-66
2024/04/02 05:01:00;;;;;;;12.77;11.25;;;6.70;99.90;;;;;;7381250;19;20496;-66
2024/04/02 05:03:26;;;;;;;12.00;10.80;;;6.70;99.90;;;;;;7382933;19;20110;-66
2024/04/02 05:06:06;;;;;;;14.40;11.23;;;6.70;99.90;;;;;;7384484;19;20082;-66
2024/04/02 05:08:35;;;;;;;12.48;11.15;;;6.70;99.90;;;;;;7385002;19;20082;-70
2024/04/02 05:11:03;;;;;;;13.70;12.30;;;6.70;99.90;;;;;;7382220;19;20463;-67
2024/04/02 05:13:31;;;;;;;13.95;12.18;;;6.70;99.90;;;;;;7390227;19;20011;-66
2024/04/02 05:15:57;;;;;;;14.30;12.80;;;6.70;99.90;;;;;;7395918;19;20090;-66
2024/04/02 05:18:24;;;;;;;15.07;12.90;;;6.70;99.90;;;;;;7393520;19;20010;-65
2024/04/02 05:20:50;;;;;;;15.13;12.88;;;6.70;99.90;;;;;;7394545;19;20077;-66
2024/04/02 05:23:17;;;;;;;14.80;12.93;;;6.70;99.90;;;;;;7394738;19;20511;-66
2024/04/02 05:25:45;;;;;;;13.82;11.80;;;6.70;99.90;;;;;;7390971;19;20597;-66
2024/04/02 05:28:12;;;;;;;14.68;13.05;;;6.70;99.90;;;;;;7391683;19;20026;-66
2024/04/02 05:30:38;;;;;;;16.25;13.25;;;6.70;99.90;;;;;;7386878;19;20037;-66
2024/04/02 05:33:05;;;;;;;14.77;13.15;;;6.80;99.90;;;;;;7380601;19;20019;-65
2024/04/02 05:35:33;;;;;;;14.18;12.48;;;6.80;99.90;;;;;;7385136;19;20015;-66
2024/04/02 05:37:59;;;;;;;14.60;13.02;;;6.80;99.90;;;;;;7374509;19;20019;-66
2024/04/02 05:40:25;;;;;;;14.20;12.80;;;6.80;99.90;;;;;;7371705;19;20029;-65
2024/04/02 05:42:51;;;;;;;13.50;12.20;;;6.90;99.90;;;;;;7388887;19;20048;-67
2024/04/02 05:45:17;;;;;;;13.38;11.90;;;7.00;99.90;;;;;;7383311;19;20461;-61
2024/04/02 05:47:44;;;;;;;15.82;12.45;;;7.10;99.90;;;;;;7374038;19;20403;-61
2024/04/02 05:50:11;;;;;;;14.18;12.77;;;7.20;99.90;;;;;;7373880;19;20025;-60
2024/04/02 05:52:37;;;;;;;13.90;11.45;;;7.30;99.90;;;;;;7373764;19;20460;-60
2024/04/02 05:55:07;;;;;;;14.43;11.75;;;7.40;99.90;;;;;;7375229;19;20666;-67
2024/04/02 05:57:33;;;;;;;13.45;11.25;;;7.50;99.90;;;;;;7391987;19;20493;-67
2024/04/02 05:59:59;;;;;;;12.02;9.70;;;7.60;99.90;;;;;;7390148;19;20015;-62
2024/04/02 06:02:26;;;;;;;15.13;10.48;;;7.60;99.90;;;;;;7371630;19;20355;-60
2024/04/02 06:04:52;;;;;;;13.57;9.82;;;7.70;99.90;;;;;;7376077;19;20023;-60
2024/04/02 06:07:18;;;;;;;11.65;9.82;;;7.70;99.90;;;;;;7376704;19;20025;-60
2024/04/02 06:09:45;;;;;;;12.13;9.57;;;7.90;99.90;;;;;;7379433;19;20006;-65
2024/04/02 06:12:12;;;;;;;11.10;9.27;;;8.00;99.90;;;;;;7380341;19;20040;-66
2024/04/02 06:14:38;;;;;;;9.50;8.30;;;8.30;99.90;;;;;;7379156;19;20042;-68
2024/04/02 06:17:04;;;;;;;10.43;7.65;;;8.30;99.90;;;;;;7386196;19;20018;-66
2024/04/02 06:19:33;;;;;;;11.65;8.48;;;8.40;99.90;;;;;;7387438;19;20025;-66
2024/04/02 06:22:04;;;;;;;10.27;7.40;;;8.40;99.90;;;;;;7382593;19;20078;-66
2024/04/02 06:24:31;;;;;;;10.05;7.00;;;8.60;99.90;;;;;;7375704;19;20020;-60
2024/04/02 06:26:57;;;;;;;9.20;6.60;;;8.50;99.90;;;;;;7369278;19;20090;-60
2024/04/02 06:29:23;;;;;;;11.07;7.22;;;8.50;99.90;;;;;;7381531;19;20021;-66
2024/04/02 06:31:49;;;;;;;9.98;7.35;;;8.60;99.90;;;;;;7378955;19;20053;-60
2024/04/02 06:34:16;;;;;;;10.93;6.47;;;8.60;99.90;;;;;;7371601;19;20026;-61
2024/04/02 06:36:42;;;;;;;9.20;6.80;;;8.60;99.90;;;;;;7373499;19;20086;-61
2024/04/02 06:39:08;;;;;;;10.63;6.53;;;8.60;99.90;;;;;;7371843;19;20383;-64
2024/04/02 06:41:38;;;;;;;9.35;7.25;;;8.60;99.90;;;;;;7374563;19;20907;-65
2024/04/02 06:44:07;;;;;;;10.73;7.25;;;8.60;99.90;;;;;;7370603;19;20916;-64
2024/04/02 06:46:33;;;;;;;9.90;6.25;;;8.70;99.90;;;;;;7372120;19;20019;-63
2024/04/02 06:49:00;;;;;;;10.25;6.97;;;8.70;99.90;;;;;;7373838;19;20022;-64
2024/04/02 06:51:27;;;;;;;8.68;6.25;;;8.70;99.90;;;;;;7372352;19;20018;-70
2024/04/02 06:53:53;;;;;;;9.70;6.70;;;8.80;99.90;;;;;;7372536;19;20018;-70
2024/04/02 06:56:20;;;;;;;9.10;6.00;;;8.80;99.90;;;;;;7374964;19;20543;-70
2024/04/02 06:58:46;;;;;;;9.90;5.85;;;8.80;99.90;;;;;;7371461;19;20521;-70
2024/04/02 07:01:13;;;;;;;8.70;6.20;;;8.90;99.90;;;;;;7372272;19;20795;-70
2024/04/02 07:03:39;;;;;;;9.00;6.30;;;8.90;99.90;;;;;;7366991;19;20842;-70
2024/04/02 07:06:08;;;;;;;11.48;5.78;;;9.00;99.90;;;;;;7371823;19;20025;-68
2024/04/02 07:08:37;;;;;;;9.45;6.18;;;9.00;99.90;;;;;;7374204;19;20094;-64
2024/04/02 07:11:05;;;;;;;10.35;6.22;;;9.10;99.90;;;;;;7373309;19;20054;-65
2024/04/02 07:13:33;;;;;;;8.35;6.22;;;9.20;99.90;;;;;;7375994;19;20025;-64
2024/04/02 07:16:03;;;;;;;9.93;6.15;;;9.20;99.90;;;;;;7371308;19;20089;-65
2024/04/02 07:18:35;;;;;;;7.97;5.53;;;9.30;99.90;;;;;;7373283;19;20094;-64
2024/04/02 07:21:10;;;;;;;10.07;6.15;;;9.30;99.90;;;;;;7369996;19;20498;-64
2024/04/02 07:23:37;;;;;;;7.53;6.03;;;9.50;99.90;;;;;;7373167;19;20022;-62
2024/04/02 07:26:04;;;;;;;8.25;5.45;;;9.70;99.90;;;;;;7373047;19;20694;-70
2024/04/02 07:28:32;;;;;;;9.25;5.38;;;9.90;99.90;;;;;;7373027;19;20482;-68
2024/04/02 07:30:58;;;;;;;8.43;5.15;;;10.10;99.90;;;;;;7370893;19;20022;-68
2024/04/02 07:33:24;;;;;;;8.85;5.80;;;10.20;99.90;;;;;;7373050;19;20023;-70
2024/04/02 07:35:55;;;;;;;8.25;5.60;;;10.30;99.90;;;;;;7370222;19;20019;-64
2024/04/02 07:38:22;;;;;;;9.52;5.68;;;10.20;99.90;;;;;;7372437;19;20449;-64
2024/04/02 07:40:48;;;;;;;8.93;5.78;;;10.00;99.90;;;;;;7370305;19;20035;-70
2024/04/02 07:43:14;;;;;;;11.30;6.30;;;9.80;99.90;;;;;;7373627;19;20030;-70
2024/04/02 07:45:40;;;;;;;10.40;6.38;;;9.70;99.90;;;;;;7369758;19;20405;-71
2024/04/02 07:48:07;;;;;;;9.95;5.72;;;9.60;99.90;;;;;;7372463;19;20015;-70
2024/04/02 07:50:37;;;;;;;13.27;6.50;;;9.60;99.90;;;;;;7372994;19;20687;-70
2024/04/02 07:53:03;;;;;;;10.05;6.10;;;9.50;99.90;;;;;;7372479;19;20026;-70
2024/04/02 07:55:30;;;;;;;9.13;5.32;;;9.50;99.90;;;;;;7366834;19;20082;-70
2024/04/02 07:57:56;;;;;;;12.40;5.88;;;9.50;99.90;;;;;;7368632;19;20438;-71
2024/04/02 08:00:22;;;;;;;9.45;6.05;;;9.50;99.90;;;;;;7366732;19;20090;-70
2024/04/02 08:02:49;;;;;;;10.00;5.85;;;9.70;99.90;;;;;;7368473;19;20014;-70
2024/04/02 08:05:18;;;;;;;12.23;5.55;;;9.70;99.90;;;;;;7368378;19;20018;-70
2024/04/02 08:07:47;;;;;;;14.45;5.85;;;9.80;99.90;;;;;;7372618;19;20030;-64
2024/04/02 08:10:14;;;;;;;11.30;6.35;;;9.70;99.90;;;;;;7370126;19;20015;-63
2024/04/02 08:12:42;;;;;;;11.48;6.32;;;9.80;99.90;;;;;;7368828;19;20172;-63
2024/04/02 08:15:09;;;;;;;14.38;6.57;;;9.80;99.90;;;;;;7373887;19;20029;-71
2024/04/02 08:17:35;;;;;;;10.68;6.35;;;9.80;99.90;;;;;;7372104;19;20898;-72
2024/04/02 08:20:03;;;;;;;10.82;6.00;;;9.80;99.90;;;;;;7369642;19;20026;-77
2024/04/02 08:22:32;;;;;;;10.35;5.72;;;9.90;99.90;;;;;;7367232;19;20011;-71
2024/04/02 08:24:59;;;;;;;8.73;6.07;;;9.90;99.90;;;;;;7366785;19;20024;-67
2024/04/02 08:27:25;;;;;;;12.98;5.95;;;10.00;99.90;;;;;;7367782;19;20764;-67
2024/04/02 08:29:51;;;;;;;10.20;5.35;;;10.00;99.90;;;;;;7372294;19;20021;-67
2024/04/02 08:32:18;;;;;;;27.55;19.17;;;10.20;99.90;;;;;;7367287;19;20011;-64
2024/04/02 08:34:44;;;;;;;10.57;5.43;;;10.40;99.90;;;;;;7368088;19;20019;-71
2024/04/02 08:37:10;;;;;;;13.00;5.70;;;10.30;99.90;;;;;;7372603;19;20053;-71
2024/04/02 08:39:36;;;;;;;11.30;5.68;;;10.30;99.90;;;;;;7371142;19;20018;-68
2024/04/02 08:42:06;;;;;;;11.15;6.03;;;10.40;99.90;;;;;;7374056;19;20015;-71
2024/04/02 08:44:35;;;;;;;11.23;5.32;;;10.40;99.90;;;;;;7374083;19;20017;-70
2024/04/02 08:47:02;;;;;;;11.57;6.15;;;10.40;99.90;;;;;;7370942;19;20019;-65
2024/04/02 08:49:28;;;;;;;11.05;5.95;;;10.50;99.90;;;;;;7370621;19;20086;-73
2024/04/02 08:51:55;;;;;;;12.10;7.00;;;10.60;99.90;;;;;;7364335;19;21225;-74
2024/04/02 08:54:21;;;;;;;10.95;6.53;;;10.70;99.90;;;;;;7371972;19;20848;-63
2024/04/02 08:56:48;;;;;;;9.88;5.50;;;10.70;99.90;;;;;;7358615;19;20015;-65
2024/04/02 08:59:18;;;;;;;13.10;6.45;;;11.00;99.90;;;;;;7368466;19;20010;-66
2024/04/02 09:01:45;;;;;;;11.35;6.20;;;11.10;99.90;;;;;;7367085;19;20063;-65
2024/04/02 09:04:14;;;;;;;11.32;5.97;;;11.30;99.90;;;;;;7368469;19;20701;-65
2024/04/02 09:06:42;;;;;;;15.38;6.18;;;11.20;99.90;;;;;;7369695;19;20439;-65
2024/04/02 09:09:20;;;;;;;12.07;6.82;;;11.20;99.90;;;;;;7364714;19;20348;-65
2024/04/02 09:11:48;;;;;;;13.43;6.95;;;11.00;99.90;;;;;;7366162;19;20015;-65
2024/04/02 09:14:15;;;;;;;8.38;6.55;;;11.00;99.90;;;;;;7371074;19;20110;-67
2024/04/02 09:16:42;;;;;;;13.73;6.68;;;11.00;99.90;;;;;;7367802;19;20766;-69
2024/04/02 09:19:08;;;;;;;12.77;7.32;;;10.90;99.90;;;;;;7370866;19;20019;-72
2024/04/02 09:21:34;;;;;;;13.30;7.68;;;10.90;99.90;;;;;;7369801;19;20018;-72
2024/04/02 09:24:00;;;;;;;12.68;7.80;;;10.80;99.90;;;;;;7370545;19;20023;-68
2024/04/02 09:26:27;;;;;;;13.95;7.60;;;10.80;99.90;;;;;;7361737;19;20498;-70
2024/04/02 09:28:53;;;;;;;13.88;7.90;;;10.90;99.90;;;;;;7364462;19;20022;-67
2024/04/02 09:31:19;;;;;;;10.25;7.57;;;11.00;99.90;;;;;;7369763;19;20482;-65
2024/04/02 09:33:49;;;;;;;13.80;8.10;;;11.00;99.90;;;;;;7366982;19;20015;-71
2024/04/02 09:36:37;;;;;;;15.30;8.90;;;11.00;99.90;;;;;;7367162;19;20108;-66
2024/04/02 09:39:04;;;;;;;16.85;8.48;;;11.10;99.90;;;;;;7369667;19;20486;-67
2024/04/02 09:41:32;;;;;;;16.38;9.32;;;11.10;99.90;;;;;;7370063;19;20616;-65
2024/04/02 09:44:01;;;;;;;12.65;9.07;;;11.20;99.90;;;;;;7368734;19;20022;-65
2024/04/02 09:46:29;;;;;;;15.30;9.52;;;11.40;99.90;;;;;;7364547;19;20015;-71
2024/04/02 09:48:56;;;;;;;14.70;9.10;;;11.50;99.90;;;;;;7367982;19;20113;-66
2024/04/02 09:51:25;;;;;;;11.48;8.10;;;11.70;99.90;;;;;;7366281;19;20023;-65
2024/04/02 09:53:54;;;;;;;14.70;8.45;;;12.00;99.90;;;;;;7367884;19;20489;-69
2024/04/02 09:56:23;;;;;;;12.20;7.82;;;12.10;99.90;;;;;;7368154;19;20026;-71
2024/04/02 09:58:53;;;;;;;13.32;8.40;;;12.00;99.90;;;;;;7370159;19;20018;-71
2024/04/02 10:01:27;;;;;;;17.75;8.88;;;11.90;99.90;;;;;;7369771;19;20026;-70
2024/04/02 10:03:57;;;;;;;15.10;8.57;;;12.00;99.90;;;;;;7374229;19;20085;-65
2024/04/02 10:06:27;;;;;;;17.88;9.55;;;11.90;99.90;;;;;;7375855;19;20037;-70
2024/04/02 10:08:58;;;;;;;14.45;8.25;;;11.80;99.90;;;;;;7367758;19;20040;-70
2024/04/02 10:11:40;;;;;;;10.60;8.43;;;11.90;99.90;;;;;;7374333;19;20018;-65
2024/04/02 10:14:12;;;;;;;12.38;8.68;;;12.10;99.90;;;;;;7364728;19;20018;-65
2024/04/02 10:16:49;;;;;;;11.52;7.85;;;12.60;99.90;;;;;;7371112;19;20828;-65
2024/04/02 10:19:20;;;;;;;14.00;8.13;;;12.90;99.90;;;;;;7367198;19;20035;-66
2024/04/02 10:21:47;;;;;;;11.48;7.35;;;12.90;99.90;;;;;;7370683;19;20033;-70
2024/04/02 10:24:21;;;;;;;16.65;8.02;;;12.90;99.90;;;;;;7368427;19;20030;-70
2024/04/02 10:26:51;;;;;;;13.73;7.05;;;12.70;99.90;;;;;;7370229;19;20018;-65
2024/04/02 10:29:33;;;;;;;11.88;7.25;;;12.50;99.90;;;;;;7365706;19;20022;-71
2024/04/02 10:32:00;;;;;;;12.90;7.47;;;12.80;99.90;;;;;;7368428;19;20028;-71
2024/04/02 10:34:27;;;;;;;13.18;7.53;;;12.70;99.90;;;;;;7362695;19;20074;-70
2024/04/02 10:36:53;;;;;;;11.73;8.07;;;12.50;99.90;;;;;;7369371;19;20018;-66
2024/04/02 10:39:19;;;;;;;13.80;8.20;;;12.80;99.90;;;;;;7371902;19;20018;-63
2024/04/02 10:41:47;;;;;;;11.80;7.13;;;13.20;99.90;;;;;;7363107;19;20040;-68
2024/04/02 10:44:18;;;;;;;11.85;6.53;;;13.70;99.90;;;;;;7371123;19;20524;-66
2024/04/02 10:46:44;;;;;;;10.65;6.05;;;14.10;99.90;;;;;;7365572;19;20022;-66
2024/04/02 10:49:10;;;;;;;12.75;5.63;;;14.70;99.90;;;;;;7372893;19;20577;-66
2024/04/02 10:51:36;;;;;;;10.93;5.90;;;15.10;99.90;;;;;;7371628;19;20588;-66
2024/04/02 10:54:03;;;;;;;8.88;4.63;;;14.80;99.90;;;;;;7371226;19;20024;-66
2024/04/02 10:56:30;;;;;;;9.65;5.00;;;14.70;99.90;;;;;;7375187;19;20113;-70
2024/04/02 10:58:57;;;;;;;10.75;4.47;;;14.50;99.90;;;;;;7373301;19;20021;-70
2024/04/02 11:01:23;;;;;;;10.43;5.57;;;14.20;99.90;;;;;;7373372;19;20082;-71
2024/04/02 11:03:51;;;;;;;12.40;4.75;;;13.80;99.90;;;;;;7375238;19;20018;-71
2024/04/02 11:06:18;;;;;;;12.25;5.28;;;13.70;99.90;;;;;;7372156;19;20052;-70
2024/04/02 11:08:49;;;;;;;9.45;5.07;;;13.50;99.90;;;;;;7378153;19;20018;-69
2024/04/02 11:11:24;;;;;;;11.38;5.15;;;13.20;99.90;;;;;;7370937;19;20023;-70
2024/04/02 11:13:51;;;;;;;9.50;4.97;;;13.10;99.90;;;;;;7368716;19;20022;-71
2024/04/02 11:16:18;;;;;;;12.90;6.05;;;13.20;99.90;;;;;;7366846;19;20489;-70
2024/04/02 11:18:45;;;;;;;11.07;5.22;;;13.20;99.90;;;;;;7371149;19;20388;-70
2024/04/02 11:21:21;;;;;;;9.82;5.10;;;13.40;99.90;;;;;;7366813;19;20882;-69
2024/04/02 11:26:32;;;;;;;9.75;5.43;;;13.50;99.90;;;;;;7369900;19;20030;-70
2024/04/02 11:29:05;;;;;;;10.18;5.43;;;13.50;99.90;;;;;;7365026;19;21168;-69
2024/04/02 11:31:31;;;;;;;12.48;5.38;;;13.40;99.90;;;;;;7374643;19;20035;-70
2024/04/02 11:34:01;;;;;;;8.77;5.30;;;13.40;99.90;;;;;;7364224;19;20018;-70
2024/04/02 11:36:27;;;;;;;10.52;5.35;;;13.40;99.90;;;;;;7371010;19;20014;-65
2024/04/02 11:38:54;;;;;;;12.32;5.47;;;13.50;99.90;;;;;;7365946;19;20010;-65
2024/04/02 11:41:20;;;;;;;10.68;5.07;;;13.50;99.90;;;;;;7370592;19;20021;-65
2024/04/02 11:43:46;;;;;;;10.07;5.10;;;13.60;99.90;;;;;;7364886;19;20029;-64
2024/04/02 11:46:13;;;;;;;10.43;4.15;;;13.50;99.90;;;;;;7368153;19;20018;-64
2024/04/02 11:48:40;;;;;;;10.00;4.43;;;13.40;99.90;;;;;;7364133;19;20011;-65
2024/04/02 11:51:07;;;;;;;7.93;4.10;;;13.30;99.90;;;;;;7367850;19;20031;-65
2024/04/02 11:53:33;;;;;;;9.93;4.20;;;13.20;99.90;;;;;;7369445;19;20018;-65
2024/04/02 11:55:59;;;;;;;8.90;4.22;;;13.10;99.90;;;;;;7364875;19;20097;-64
2024/04/02 12:01:12;;;;;;;8.95;4.13;;;13.00;99.90;;;;;;7368468;19;20022;-70
2024/04/02 12:03:39;;;;;;;9.10;3.50;;;12.70;99.90;;;;;;7369256;19;20033;-70
2024/04/02 12:06:06;;;;;;;8.65;3.70;;;12.80;99.90;;;;;;7367302;19;20050;-65
2024/04/02 12:08:32;;;;;;;10.95;3.20;;;12.70;99.90;;;;;;7368977;19;20018;-65
2024/04/02 12:10:58;;;;;;;8.35;3.10;;;12.60;99.90;;;;;;7367740;19;20796;-65
2024/04/02 12:13:24;;;;;;;8.52;3.28;;;12.50;99.90;;;;;;7372347;19;20022;-66
2024/04/02 12:15:50;;;;;;;10.43;3.03;;;12.60;99.90;;;;;;7369584;19;20030;-66
2024/04/02 12:18:17;;;;;;;8.43;3.13;;;12.70;99.90;;;;;;7371331;19;20019;-65
2024/04/02 12:20:46;;;;;;;5.32;2.50;;;12.80;99.90;;;;;;7368692;19;20543;-70
2024/04/02 12:23:12;;;;;;;5.47;2.38;;;13.00;99.90;;;;;;7367041;19;21324;-70
2024/04/02 12:25:38;;;;;;;7.05;2.80;;;13.30;99.90;;;;;;7359416;19;20097;-65
2024/04/02 12:28:05;;;;;;;9.02;2.90;;;13.30;99.90;;;;;;7366999;19;20599;-65
2024/04/02 12:30:31;;;;;;;9.65;3.55;;;13.30;99.90;;;;;;7372411;19;20022;-65
2024/04/02 12:32:58;;;;;;;9.30;3.35;;;13.40;99.90;;;;;;7367298;19;20370;-65
2024/04/02 12:35:24;;;;;;;7.70;3.45;;;13.30;99.90;;;;;;7367822;19;20023;-64
2024/04/02 12:37:52;;;;;;;9.95;3.55;;;13.30;99.90;;;;;;7368912;19;20035;-63
2024/04/02 12:40:19;;;;;;;8.32;3.70;;;13.30;99.90;;;;;;7366661;19;20022;-64
2024/04/02 12:42:45;;;;;;;7.93;3.22;;;13.20;99.90;;;;;;7373636;19;20022;-64
2024/04/02 12:45:11;;;;;;;8.30;3.90;;;13.00;99.90;;;;;;7363327;19;20477;-65
2024/04/02 12:47:37;;;;;;;10.05;4.40;;;12.90;99.90;;;;;;7372754;19;20023;-65
2024/04/02 12:50:04;;;;;;;10.20;4.47;;;12.70;99.90;;;;;;7360924;19;20026;-71